Time;durP1;ratioP1;P1;durP2;ratioP2;P2;SDS_P1;SDS_P2;PMS_P1;PMS_P2;Temp;Humidity;BMP_temperature;BMP_pressure;BME280_temperature;BME280_humidity;BME280_pressure;Samples;Min_cycle;Max_cycle;Signal;HPM_P1;HPM_P2
2021/12/14 00:00:12;;;;;;;5.93;5.43;;;;;;;6.22;84.00;100453.50;5045837;23;20230;-80
2021/12/14 00:03:12;;;;;;;6.00;5.50;;;;;;;6.19;84.14;100460.00;5020732;23;20219;-81
2021/12/14 00:06:40;;;;;;;5.60;5.10;;;;;;;6.24;84.48;100458.66;5010920;23;20249;-80
2021/12/14 00:09:11;;;;;;;5.33;4.93;;;;;;;6.22;84.62;100460.66;5023215;23;20233;-80
2021/12/14 00:15:28;;;;;;;5.57;5.17;;;;;;;6.36;84.84;100452.78;5073926;23;20230;-81
2021/12/14 00:18:13;;;;;;;5.30;4.90;;;;;;;6.35;84.43;100442.28;5049100;23;20206;-81
2021/12/14 00:21:31;;;;;;;6.07;5.57;;;;;;;6.30;84.60;100442.81;5029718;23;20238;-80
2021/12/14 00:24:26;;;;;;;5.50;5.00;;;;;;;6.40;84.63;100447.94;5026365;23;20230;-81
2021/12/14 00:27:35;;;;;;;5.53;5.03;;;;;;;6.45;83.98;100451.75;5038596;23;20247;-80
2021/12/14 00:30:12;;;;;;;5.43;5.03;;;;;;;6.40;84.78;100445.28;5042280;22;20298;-81
2021/12/14 00:33:19;;;;;;;5.30;4.90;;;;;;;6.32;84.61;100438.16;5022699;28;20195;-82
2021/12/14 00:35:48;;;;;;;5.40;4.93;;;;;;;6.31;84.50;100439.16;5042466;23;20245;-81
2021/12/14 00:38:26;;;;;;;5.57;5.17;;;;;;;6.44;84.82;100438.63;5035503;23;20246;-80
2021/12/14 00:41:39;;;;;;;5.10;4.70;;;;;;;6.55;84.93;100446.22;5037567;23;20223;-80
2021/12/14 00:44:33;;;;;;;5.40;5.00;;;;;;;6.47;84.24;100439.09;5019872;23;20242;-80
2021/12/14 00:47:46;;;;;;;4.63;4.23;;;;;;;6.50;84.83;100444.06;4971733;28;20193;-80
2021/12/14 00:50:14;;;;;;;5.33;4.93;;;;;;;6.50;84.94;100445.91;5029821;23;20207;-79
2021/12/14 00:53:22;;;;;;;5.73;5.33;;;;;;;6.58;84.94;100437.88;5026242;23;20234;-81
2021/12/14 00:56:33;;;;;;;5.23;4.83;;;;;;;6.56;84.71;100437.22;5036632;28;20190;-80
2021/12/14 00:59:26;;;;;;;5.20;4.80;;;;;;;6.62;84.08;100434.69;5057425;23;20230;-80
2021/12/14 01:02:24;;;;;;;5.60;5.10;;;;;;;6.58;85.23;100430.72;5065084;23;20221;-80
2021/12/14 01:05:10;;;;;;;5.40;4.90;;;;;;;6.62;84.74;100437.34;5052928;28;20527;-80
2021/12/14 01:08:22;;;;;;;5.70;5.20;;;;;;;6.62;84.77;100436.53;5048218;23;20215;-80
2021/12/14 01:11:29;;;;;;;5.57;5.07;;;;;;;6.60;85.07;100427.88;5049370;23;20226;-80
2021/12/14 01:14:23;;;;;;;5.70;5.20;;;;;;;6.58;84.57;100444.03;5144825;23;20234;-80
2021/12/14 01:17:39;;;;;;;5.57;5.17;;;;;;;6.61;84.21;100435.69;5048828;23;20222;-80
2021/12/14 01:20:39;;;;;;;5.50;5.10;;;;;;;6.63;84.50;100443.50;5058148;23;20291;-81
2021/12/14 01:26:43;;;;;;;5.67;5.17;;;;;;;6.70;84.61;100448.97;5007296;23;20225;-80
2021/12/14 01:30:07;;;;;;;5.77;5.27;;;;;;;6.70;84.52;100447.13;5063956;23;20245;-80
2021/12/14 01:33:10;;;;;;;5.50;5.00;;;;;;;6.67;85.47;100436.00;5010963;23;20219;-80
2021/12/14 01:36:41;;;;;;;5.70;5.20;;;;;;;6.74;85.11;100440.44;5010895;23;20232;-80
2021/12/14 01:40:46;;;;;;;5.67;5.17;;;;;;;6.63;84.32;100422.19;5081518;23;20233;-80
2021/12/14 01:43:33;;;;;;;5.30;4.80;;;;;;;6.78;84.40;100444.41;4987965;23;20216;-80
2021/12/14 01:47:23;;;;;;;4.90;4.50;;;;;;;6.79;85.10;100445.25;5053723;23;20224;-80
2021/12/14 01:50:24;;;;;;;5.00;4.60;;;;;;;6.77;84.50;100450.75;4994520;23;20231;-80
2021/12/14 01:53:14;;;;;;;4.63;4.23;;;;;;;6.81;84.23;100456.56;5017595;23;20218;-80
2021/12/14 01:56:16;;;;;;;4.83;4.43;;;;;;;6.81;84.62;100452.03;5020425;23;20639;-80
2021/12/14 01:59:25;;;;;;;4.73;4.33;;;;;;;6.84;84.64;100451.72;4992288;23;20233;-80
2021/12/14 02:03:06;;;;;;;4.37;3.97;;;;;;;6.69;84.33;100449.97;4999261;23;20207;-80
2021/12/14 02:10:53;;;;;;;3.70;3.40;;;;;;;6.90;84.18;100452.84;5090484;23;20235;-80
2021/12/14 02:14:10;;;;;;;3.30;3.00;;;;;;;6.92;84.71;100457.00;5006566;23;20227;-80
2021/12/14 02:17:02;;;;;;;3.30;3.00;;;;;;;6.88;84.94;100463.69;4971707;23;20195;-80
2021/12/14 02:20:10;;;;;;;2.93;2.70;;;;;;;6.95;85.46;100464.63;4984167;23;20251;-80
2021/12/14 02:23:51;;;;;;;2.53;2.30;;;;;;;6.99;84.95;100452.63;4993674;23;20230;-80
2021/12/14 02:26:51;;;;;;;3.00;2.80;;;;;;;6.98;85.16;100458.97;5001386;28;20220;-80
2021/12/14 02:29:52;;;;;;;2.90;2.70;;;;;;;7.01;85.21;100457.75;4991816;23;20251;-80
2021/12/14 02:33:04;;;;;;;2.57;2.37;;;;;;;7.00;85.49;100459.59;5001841;23;20256;-80
2021/12/14 02:35:53;;;;;;;3.90;3.60;;;;;;;7.05;85.03;100448.41;5000881;23;20232;-81
2021/12/14 02:39:07;;;;;;;4.10;3.70;;;;;;;7.06;84.47;100461.56;5185303;23;20252;-80
2021/12/14 02:42:53;;;;;;;4.30;3.97;;;;;;;6.99;84.96;100459.78;4940884;29;20194;-81
2021/12/14 02:46:44;;;;;;;4.93;4.30;;;;;;;7.03;84.14;100458.44;5020870;23;20235;-79
2021/12/14 02:49:53;;;;;;;4.70;4.30;;;;;;;6.93;84.70;100458.66;5019180;23;20228;-80
2021/12/14 02:52:50;;;;;;;5.47;4.97;;;;;;;6.88;84.80;100457.50;5032201;23;20227;-79
2021/12/14 02:55:33;;;;;;;5.50;5.00;;;;;;;6.86;84.83;100449.69;5120080;23;20227;-80
2021/12/14 03:02:03;;;;;;;5.93;5.43;;;;;;;6.88;85.31;100452.19;5008969;23;20215;-80
2021/12/14 03:05:13;;;;;;;6.07;5.57;;;;;;;6.85;84.54;100450.72;5023594;23;20255;-80
2021/12/14 03:08:44;;;;;;;5.77;5.27;;;;;;;6.77;85.13;100434.75;5026277;23;20231;-80
2021/12/14 03:12:29;;;;;;;6.30;5.70;;;;;;;6.93;85.57;100455.16;5176347;23;20322;-79
2021/12/14 03:16:03;;;;;;;6.63;6.03;;;;;;;6.85;84.99;100450.72;5022433;23;20315;-79
2021/12/14 03:19:23;;;;;;;6.40;5.80;;;;;;;6.87;84.62;100455.84;5022513;23;20215;-79
2021/12/14 03:22:26;;;;;;;6.73;6.03;;;;;;;6.86;84.54;100440.91;5019436;23;20208;-80
2021/12/14 03:25:30;;;;;;;6.73;6.13;;;;;;;6.92;84.32;100457.00;5025012;23;20218;-79
2021/12/14 03:28:15;;;;;;;7.30;6.60;;;;;;;6.94;84.44;100448.84;5094569;23;20239;-80
2021/12/14 03:31:08;;;;;;;7.47;6.83;;;;;;;6.86;84.08;100455.00;4997720;23;20224;-79
2021/12/14 03:34:53;;;;;;;7.30;6.60;;;;;;;6.87;84.27;100456.69;4998445;23;20258;-79
2021/12/14 03:38:01;;;;;;;7.47;6.77;;;;;;;6.90;85.16;100455.53;5033202;23;20290;-80
2021/12/14 03:40:44;;;;;;;7.70;7.00;;;;;;;6.81;84.71;100430.75;5009464;23;20501;-80
2021/12/14 03:44:02;;;;;;;7.80;7.00;;;;;;;7.04;82.93;100446.78;4995691;23;20238;-82
2021/12/14 03:50:40;;;;;;;8.67;7.83;;;;;;;6.96;83.91;100460.13;4988616;23;20303;-79
2021/12/14 03:54:12;;;;;;;9.10;7.07;;;;;;;7.00;83.13;100454.25;4994656;23;20295;-80
2021/12/14 03:57:25;;;;;;;8.33;7.53;;;;;;;6.94;83.87;100455.00;4980259;28;20303;-80
2021/12/14 04:00:40;;;;;;;8.73;7.83;;;;;;;6.89;84.07;100452.03;5013483;23;20207;-80
2021/12/14 04:04:27;;;;;;;7.90;7.20;;;;;;;6.93;84.45;100453.31;5031069;23;20243;-80
2021/12/14 04:08:09;;;;;;;7.50;6.70;;;;;;;6.95;84.64;100448.63;5018784;28;20214;-80
2021/12/14 04:11:34;;;;;;;7.50;6.80;;;;;;;6.95;84.02;100447.84;5024589;23;20223;-80
2021/12/14 04:15:10;;;;;;;8.50;7.60;;;;;;;6.91;84.44;100452.66;5021169;23;20282;-79
2021/12/14 04:18:25;;;;;;;8.07;7.27;;;;;;;6.89;85.39;100456.53;5025058;23;20223;-80
2021/12/14 04:21:46;;;;;;;8.33;7.53;;;;;;;6.89;85.14;100448.53;5005934;23;20236;-79
2021/12/14 04:25:03;;;;;;;7.57;6.70;;;;;;;6.99;84.89;100457.97;5082169;23;20223;-80
2021/12/14 04:28:21;;;;;;;7.83;7.03;;;;;;;6.92;85.03;100454.31;5094570;23;20212;-81
2021/12/14 04:31:49;;;;;;;6.97;6.37;;;;;;;6.93;84.64;100456.00;5019234;28;20164;-79
2021/12/14 04:54:14;;;;;;;5.67;5.17;;;;;;;6.95;85.03;100448.63;5025959;23;20222;-79
2021/12/14 04:57:45;;;;;;;6.57;5.17;;;;;;;6.97;84.22;100454.63;5047399;23;20230;-81
2021/12/14 05:01:28;;;;;;;5.53;5.03;;;;;;;7.02;84.63;100464.75;5021342;23;20219;-81
2021/12/14 05:05:18;;;;;;;6.13;5.63;;;;;;;7.05;85.16;100456.41;4159923;23;20203;-81
2021/12/14 05:12:01;;;;;;;6.77;6.10;;;;;;;7.14;83.81;100463.31;5012676;23;20218;-81
2021/12/14 05:14:46;;;;;;;6.83;6.17;;;;;;;7.20;83.48;100459.13;5007117;23;20235;-81
2021/12/14 05:18:14;;;;;;;6.70;6.10;;;;;;;7.20;83.28;100462.63;5008619;23;20223;-81
2021/12/14 05:24:29;;;;;;;6.77;6.17;;;;;;;7.15;83.58;100462.31;5092083;23;20218;-82
2021/12/14 05:27:31;;;;;;;4.27;3.97;;;;;;;7.09;83.58;100455.88;4353312;23;19005443;-81
2021/12/14 05:30:48;;;;;;;6.37;5.77;;;;;;;7.06;83.80;100456.22;5025261;23;20239;-81
2021/12/14 05:34:13;;;;;;;6.17;5.57;;;;;;;7.18;83.58;100454.00;5018559;28;20180;-81
2021/12/14 05:37:41;;;;;;;6.27;5.67;;;;;;;7.16;83.20;100457.84;5033871;23;20222;-81
2021/12/14 05:40:45;;;;;;;6.40;5.80;;;;;;;7.14;83.21;100460.66;5060433;23;20240;-81
2021/12/14 05:43:45;;;;;;;10.07;9.03;;;;;;;7.11;83.61;100450.38;4978287;28;20192;-81
2021/12/14 05:46:52;;;;;;;11.20;9.50;;;;;;;6.94;83.61;100449.66;5025933;23;20653;-80
2021/12/14 05:50:50;;;;;;;10.23;9.23;;;;;;;6.78;83.96;100452.41;5106225;23;20209;-81
2021/12/14 05:54:10;;;;;;;10.97;9.83;;;;;;;6.77;85.63;100457.91;5016490;23;20250;-80
2021/12/14 05:57:36;;;;;;;12.13;10.70;;;;;;;6.75;85.83;100463.44;5007702;28;20257;-81
2021/12/14 06:01:06;;;;;;;11.67;10.27;;;;;;;6.60;86.87;100434.03;5004375;23;20230;-81
2021/12/14 06:04:16;;;;;;;13.90;11.50;;;;;;;6.76;86.63;100458.94;5009997;23;20343;-81
2021/12/14 06:07:32;;;;;;;11.53;10.33;;;;;;;6.61;86.95;100446.34;5033821;22;20215;-81
2021/12/14 06:10:36;;;;;;;11.63;10.43;;;;;;;6.73;86.89;100454.75;5007953;23;20227;-81
2021/12/14 06:13:49;;;;;;;11.33;10.23;;;;;;;6.72;86.95;100453.09;4998239;23;20675;-81
2021/12/14 06:17:34;;;;;;;12.20;10.90;;;;;;;6.67;88.04;100466.13;4957548;28;20229;-81
2021/12/14 06:21:25;;;;;;;13.80;12.33;;;;;;;6.66;88.03;100447.66;5065274;23;20306;-80
2021/12/14 06:24:06;;;;;;;13.87;12.47;;;;;;;6.69;87.58;100456.13;5018513;28;20223;-79
2021/12/14 06:27:31;;;;;;;12.10;10.80;;;;;;;6.77;87.59;100450.75;5037134;23;20246;-80
2021/12/14 06:30:46;;;;;;;14.17;12.70;;;;;;;6.72;87.01;100454.97;5023057;28;20183;-79
2021/12/14 06:33:47;;;;;;;14.40;13.00;;;;;;;6.69;86.49;100458.78;5029714;23;20236;-80
2021/12/14 06:37:17;;;;;;;14.57;13.03;;;;;;;6.51;86.15;100452.88;5043427;23;20231;-79
2021/12/14 06:40:20;;;;;;;14.43;12.93;;;;;;;6.44;86.40;100463.38;5048231;23;20214;-79
2021/12/14 06:43:38;;;;;;;14.33;12.83;;;;;;;6.30;86.45;100453.47;5017666;28;21103;-79
2021/12/14 06:47:58;;;;;;;14.70;13.20;;;;;;;6.29;87.35;100461.63;5039631;23;20253;-80
2021/12/14 06:51:22;;;;;;;16.03;14.43;;;;;;;6.23;86.52;100443.69;5035035;28;20254;-80
2021/12/14 06:54:15;;;;;;;15.30;13.70;;;;;;;6.28;85.96;100459.97;5035153;28;20262;-80
2021/12/14 06:57:51;;;;;;;16.40;14.43;;;;;;;6.25;86.79;100452.34;5038961;23;20232;-80
2021/12/14 07:00:39;;;;;;;16.93;14.40;;;;;;;6.21;86.37;100459.81;5037608;23;20255;-79
2021/12/14 07:04:20;;;;;;;17.17;13.73;;;;;;;6.27;86.44;100453.81;5030553;23;20218;-82
2021/12/14 07:07:43;;;;;;;18.13;15.13;;;;;;;6.26;86.51;100457.47;5107795;23;20219;-79
2021/12/14 07:10:35;;;;;;;19.27;16.23;;;;;;;6.23;87.31;100449.84;5015880;28;20283;-80
2021/12/14 07:13:34;;;;;;;17.03;15.33;;;;;;;6.25;87.10;100449.69;5106694;23;20227;-79
2021/12/14 07:17:08;;;;;;;18.47;16.43;;;;;;;6.16;86.87;100456.81;5042050;23;20245;-79
2021/12/14 07:20:04;;;;;;;18.43;14.73;;;;;;;6.21;87.06;100465.13;5019544;28;20218;-81
2021/12/14 07:22:57;;;;;;;17.77;14.83;;;;;;;6.13;86.84;100458.00;5042254;23;20231;-80
2021/12/14 07:26:28;;;;;;;16.87;14.40;;;;;;;6.22;87.03;100465.97;5021548;28;20187;-80
2021/12/14 07:29:46;;;;;;;17.03;15.10;;;;;;;6.18;87.17;100471.63;5037448;23;20223;-80
2021/12/14 07:33:06;;;;;;;17.73;15.73;;;;;;;6.17;87.49;100472.63;5016216;28;20231;-80
2021/12/14 07:36:00;;;;;;;17.60;15.60;;;;;;;6.23;87.54;100487.09;5024503;23;20237;-81
2021/12/14 07:38:46;;;;;;;20.93;15.43;;;;;;;6.24;86.73;100480.78;5004696;23;20232;-80
2021/12/14 07:42:01;;;;;;;17.00;15.20;;;;;;;6.25;87.53;100471.81;4994966;28;20214;-80
2021/12/14 07:45:58;;;;;;;16.77;14.97;;;;;;;6.29;86.73;100480.25;5031796;23;20241;-80
2021/12/14 07:49:21;;;;;;;17.07;14.90;;;;;;;6.39;87.63;100476.38;5040729;23;20384;-80
2021/12/14 07:52:25;;;;;;;17.27;15.37;;;;;;;6.45;87.38;100482.84;5034868;28;20194;-80
2021/12/14 07:55:17;;;;;;;17.50;15.30;;;;;;;6.52;87.40;100481.19;5034700;28;20171;-80
2021/12/14 07:57:55;;;;;;;18.07;15.13;;;;;;;6.55;86.63;100471.00;5039634;23;20580;-80
2021/12/14 08:00:40;;;;;;;18.70;15.90;;;;;;;6.63;86.35;100476.28;5034799;28;20262;-80
2021/12/14 08:04:05;;;;;;;16.97;14.90;;;;;;;6.70;87.36;100475.59;5002012;23;20196;-80
2021/12/14 08:07:45;;;;;;;15.33;13.67;;;;;;;6.89;86.57;100477.84;5039329;22;20234;-79
2021/12/14 08:11:48;;;;;;;17.50;14.80;;;;;;;6.87;84.97;100477.16;5013270;23;20219;-80
2021/12/14 08:14:42;;;;;;;16.67;13.97;;;;;;;7.05;85.13;100472.38;5034084;23;20239;-80
2021/12/14 08:17:45;;;;;;;17.80;15.17;;;;;;;7.33;84.66;100470.84;5059085;23;20683;-80
2021/12/14 08:21:32;;;;;;;16.50;14.70;;;;;;;7.40;84.14;100469.16;5040990;23;20221;-80
2021/12/14 08:24:19;;;;;;;16.47;14.70;;;;;;;7.54;83.37;100464.88;4951578;29;20233;-79
2021/12/14 08:27:46;;;;;;;17.10;15.30;;;;;;;7.72;82.29;100473.38;5084360;23;20223;-79
2021/12/14 08:30:22;;;;;;;15.93;14.23;;;;;;;7.79;82.51;100468.97;5013200;23;20224;-79
2021/12/14 08:33:38;;;;;;;17.27;15.53;;;;;;;7.91;82.73;100469.38;5000277;23;20239;-79
2021/12/14 08:36:22;;;;;;;14.80;13.17;;;;;;;7.85;81.45;100468.25;4979613;28;20208;-80
2021/12/14 08:39:29;;;;;;;16.57;14.77;;;;;;;7.92;81.33;100471.84;5001339;23;20259;-79
2021/12/14 08:43:07;;;;;;;17.10;14.73;;;;;;;7.92;80.79;100465.69;4995033;23;20243;-80
2021/12/14 08:46:27;;;;;;;16.67;14.87;;;;;;;7.87;82.27;100468.91;4990806;23;20232;-79
2021/12/14 08:49:55;;;;;;;19.70;15.03;;;;;;;7.88;80.91;100478.56;4980944;28;20196;-80
2021/12/14 08:53:05;;;;;;;17.80;15.90;;;;;;;7.88;80.87;100488.41;5010501;23;20319;-79
2021/12/14 08:56:22;;;;;;;17.07;15.27;;;;;;;7.74;81.76;100462.53;5038606;23;20521;-80
2021/12/14 08:59:17;;;;;;;17.77;15.87;;;;;;;7.90;81.86;100473.88;5040433;23;20238;-79
2021/12/14 09:02:08;;;;;;;17.20;15.13;;;;;;;7.88;81.90;100475.91;5047363;23;21433;-80
2021/12/14 09:05:21;;;;;;;17.03;15.33;;;;;;;7.91;81.67;100472.03;5029246;23;20360;-79
2021/12/14 09:08:19;;;;;;;17.70;15.80;;;;;;;7.99;80.85;100469.28;5036211;23;20244;-79
2021/12/14 09:11:24;;;;;;;17.47;15.57;;;;;;;7.99;81.94;100477.28;5039650;23;20258;-80
2021/12/14 09:14:41;;;;;;;17.07;15.27;;;;;;;8.08;79.81;100478.84;5030520;23;20202;-79
2021/12/14 09:17:37;;;;;;;17.30;15.50;;;;;;;7.97;81.07;100471.31;5040284;23;20234;-80
2021/12/14 09:20:59;;;;;;;16.77;14.67;;;;;;;8.03;80.90;100462.56;5031159;23;20231;-79
2021/12/14 09:24:49;;;;;;;17.60;14.63;;;;;;;8.06;79.95;100464.03;5001695;23;20239;-81
2021/12/14 09:27:31;;;;;;;16.07;13.73;;;;;;;8.08;79.45;100452.16;5026773;23;20530;-79
2021/12/14 09:30:56;;;;;;;16.00;14.37;;;;;;;8.17;79.76;100452.91;5059786;23;20267;-80
2021/12/14 09:34:05;;;;;;;15.33;13.70;;;;;;;8.32;78.82;100443.91;5054721;28;20190;-80
2021/12/14 09:37:38;;;;;;;18.90;14.27;;;;;;;8.32;79.89;100441.25;5059930;23;20213;-82
2021/12/14 09:41:04;;;;;;;14.83;13.23;;;;;;;8.40;80.29;100438.47;5059689;23;20234;-80
2021/12/14 09:43:40;;;;;;;16.03;14.33;;;;;;;8.47;79.88;100433.22;5054431;23;20227;-80
2021/12/14 09:47:08;;;;;;;15.70;14.00;;;;;;;8.50;78.89;100424.00;5038344;23;20198;-80
2021/12/14 09:50:25;;;;;;;15.40;13.80;;;;;;;8.76;77.57;100432.34;5060817;23;20249;-80
2021/12/14 09:53:14;;;;;;;15.00;13.40;;;;;;;8.87;77.00;100433.66;5059846;23;20238;-80
2021/12/14 09:56:11;;;;;;;15.03;13.47;;;;;;;8.88;76.70;100427.31;5077959;22;20301;-79
2021/12/14 09:59:08;;;;;;;15.03;13.53;;;;;;;8.90;77.01;100423.44;5160083;22;20235;-80
2021/12/14 10:02:38;;;;;;;14.27;12.83;;;;;;;8.88;77.45;100408.59;5067353;23;20213;-80
2021/12/14 10:05:45;;;;;;;14.80;13.30;;;;;;;8.99;76.76;100424.97;5053473;28;20191;-79
2021/12/14 10:08:41;;;;;;;14.50;13.03;;;;;;;8.99;78.64;100424.16;5059189;23;20245;-80
2021/12/14 10:12:04;;;;;;;14.63;12.97;;;;;;;8.95;78.25;100412.19;5031279;23;20289;-80
2021/12/14 10:14:53;;;;;;;15.90;14.20;;;;;;;9.11;77.80;100403.91;5053017;28;20190;-80
2021/12/14 10:17:33;;;;;;;15.10;13.60;;;;;;;9.05;77.99;100412.72;5052263;28;20241;-80
2021/12/14 10:20:09;;;;;;;14.73;13.23;;;;;;;9.04;78.68;100411.88;5052870;28;20226;-80
2021/12/14 10:23:31;;;;;;;14.97;13.37;;;;;;;9.05;78.08;100410.03;5059351;23;20248;-80
2021/12/14 10:26:14;;;;;;;14.83;13.27;;;;;;;9.07;78.91;100416.84;5061720;23;20233;-80
2021/12/14 10:28:59;;;;;;;14.40;12.90;;;;;;;9.01;77.75;100414.91;5057465;28;20186;-80
2021/12/14 10:32:15;;;;;;;14.13;12.60;;;;;;;8.98;77.95;100406.47;5085317;22;20234;-79
2021/12/14 10:34:58;;;;;;;14.53;13.03;;;;;;;9.07;77.56;100405.31;5057523;28;20187;-79
2021/12/14 10:38:13;;;;;;;14.70;13.20;;;;;;;9.06;78.04;100400.97;5058884;23;20238;-80
2021/12/14 10:44:45;;;;;;;15.27;13.67;;;;;;;9.08;77.73;100398.94;5078434;23;20238;-80
2021/12/14 10:48:04;;;;;;;15.63;14.03;;;;;;;9.06;77.43;100399.13;5037229;28;20167;-80
2021/12/14 10:51:04;;;;;;;14.23;12.83;;;;;;;9.01;78.21;100392.69;5028902;23;20243;-80
2021/12/14 10:53:42;;;;;;;14.73;13.23;;;;;;;9.05;78.52;100388.66;5110122;23;20211;-79
2021/12/14 10:56:52;;;;;;;14.33;12.83;;;;;;;9.05;78.20;100386.78;5069425;23;20301;-80
2021/12/14 11:00:02;;;;;;;14.33;12.90;;;;;;;9.07;78.07;100389.28;5023478;23;20239;-80
2021/12/14 11:02:45;;;;;;;15.03;13.40;;;;;;;9.22;78.47;100384.69;5040695;23;20321;-80
2021/12/14 11:05:36;;;;;;;14.73;13.23;;;;;;;9.36;77.83;100390.97;5029990;23;20226;-80
2021/12/14 11:08:47;;;;;;;15.20;13.63;;;;;;;9.50;76.95;100382.03;5008910;23;20227;-80
2021/12/14 11:12:17;;;;;;;14.90;13.40;;;;;;;9.47;76.94;100380.56;5016901;28;20310;-81
2021/12/14 11:15:52;;;;;;;14.37;12.83;;;;;;;9.50;76.31;100368.66;5037342;23;20270;-80
2021/12/14 11:18:36;;;;;;;14.37;12.97;;;;;;;9.58;76.79;100374.69;5043352;23;20218;-80
2021/12/14 11:21:42;;;;;;;14.60;12.90;;;;;;;9.51;76.68;100375.66;5044304;23;20215;-80
2021/12/14 11:25:08;;;;;;;13.77;12.37;;;;;;;9.57;76.39;100378.38;5129498;23;20310;-79
2021/12/14 11:28:05;;;;;;;14.13;12.77;;;;;;;9.45;75.83;100371.91;5028833;23;20219;-79
2021/12/14 11:31:22;;;;;;;14.03;12.27;;;;;;;9.45;76.49;100371.91;5044422;23;20236;-79
2021/12/14 11:34:41;;;;;;;15.13;12.90;;;;;;;9.37;76.41;100371.25;5030667;23;20230;-80
2021/12/14 11:37:34;;;;;;;14.07;12.57;;;;;;;9.44;76.28;100362.22;5093169;23;20227;-79
2021/12/14 11:40:07;;;;;;;14.63;13.07;;;;;;;9.33;77.21;100361.97;5025528;28;20206;-80
2021/12/14 11:43:29;;;;;;;13.90;12.50;;;;;;;9.42;77.63;100363.47;5131316;23;20246;-79
2021/12/14 11:50:51;;;;;;;16.07;13.53;;;;;;;9.49;76.56;100348.28;5031026;23;20250;-80
2021/12/14 11:53:36;;;;;;;18.07;14.23;;;;;;;9.50;76.83;100347.25;5050345;28;20223;-80
2021/12/14 11:56:57;;;;;;;15.00;13.53;;;;;;;9.35;77.34;100343.84;5034573;23;20249;-80
2021/12/14 12:03:56;;;;;;;14.90;13.40;;;;;;;9.47;77.41;100336.97;4944499;29;20252;-79
2021/12/14 12:10:16;;;;;;;15.97;14.27;;;;;;;9.57;76.75;100332.06;4969923;23;20288;-80
2021/12/14 12:13:22;;;;;;;15.83;14.23;;;;;;;9.66;76.49;100330.88;5003062;23;20229;-80
2021/12/14 12:16:25;;;;;;;16.40;14.43;;;;;;;9.62;77.08;100330.47;5020922;23;20236;-80
2021/12/14 12:19:26;;;;;;;16.87;15.17;;;;;;;9.74;76.60;100333.44;5057314;23;20320;-79
2021/12/14 12:22:24;;;;;;;18.30;15.63;;;;;;;9.72;76.08;100330.94;5011314;23;20212;-80
2021/12/14 12:25:29;;;;;;;17.17;15.37;;;;;;;9.74;76.09;100336.09;5017976;23;20206;-80
2021/12/14 12:28:52;;;;;;;17.63;15.53;;;;;;;9.56;76.75;100317.88;4979561;28;20179;-80
2021/12/14 12:32:07;;;;;;;16.10;14.50;;;;;;;9.57;75.08;100321.38;5012183;28;20219;-81
2021/12/14 12:35:32;;;;;;;17.87;15.93;;;;;;;9.73;75.60;100327.25;5098408;23;20322;-80
2021/12/14 12:39:00;;;;;;;17.53;15.70;;;;;;;9.58;75.14;100326.53;5037139;23;20325;-80
2021/12/14 12:42:20;;;;;;;17.57;15.13;;;;;;;9.44;77.07;100327.47;5007657;23;20215;-80
2021/12/14 12:45:15;;;;;;;19.83;15.70;;;;;;;9.48;76.61;100320.69;4981058;23;20228;-81
2021/12/14 12:49:12;;;;;;;19.67;15.67;;;;;;;9.48;76.08;100334.06;4995886;28;20235;-80
2021/12/14 12:52:14;;;;;;;18.23;15.83;;;;;;;9.44;75.96;100337.34;4951128;28;20254;-81
2021/12/14 12:58:42;;;;;;;17.80;15.70;;;;;;;9.04;77.01;100322.84;5008175;23;20271;-80
2021/12/14 13:01:32;;;;;;;17.60;14.70;;;;;;;8.87;77.06;100311.56;5010452;23;20271;-80
2021/12/14 13:04:47;;;;;;;18.03;16.13;;;;;;;8.91;77.46;100315.53;5001281;23;20221;-80
2021/12/14 13:08:01;;;;;;;17.90;15.53;;;;;;;9.02;77.72;100339.06;4989979;23;20232;-80
2021/12/14 13:11:00;;;;;;;19.80;15.50;;;;;;;8.90;77.61;100327.25;5024458;23;20228;31
2021/12/14 13:14:14;;;;;;;19.20;15.73;;;;;;;9.04;78.18;100328.19;5013869;23;20207;-81
2021/12/14 13:17:37;;;;;;;19.13;16.37;;;;;;;8.98;77.86;100320.94;5065859;23;20401;-81
2021/12/14 13:20:16;;;;;;;17.10;14.80;;;;;;;9.01;77.69;100339.25;5051521;23;20696;-80
2021/12/14 13:22:51;;;;;;;19.03;15.80;;;;;;;8.98;77.63;100328.94;5013117;23;20243;-80
2021/12/14 13:25:54;;;;;;;18.17;15.30;;;;;;;9.10;77.63;100341.59;5062035;23;20232;-80
2021/12/14 13:28:42;;;;;;;18.30;15.33;;;;;;;9.15;76.85;100335.66;5108767;23;20232;-79
2021/12/14 13:32:03;;;;;;;17.07;14.73;;;;;;;9.15;76.04;100333.81;5013431;28;20195;-80
2021/12/14 13:35:35;;;;;;;17.73;15.23;;;;;;;8.99;75.59;100330.59;4994762;23;20232;-80
2021/12/14 13:38:10;;;;;;;17.43;14.60;;;;;;;8.83;77.63;100331.69;4992133;28;20283;-81
2021/12/14 13:40:48;;;;;;;17.30;15.50;;;;;;;8.92;77.21;100346.56;5013450;23;20211;-80
2021/12/14 13:43:24;;;;;;;17.83;14.43;;;;;;;8.80;77.33;100351.59;5021323;23;20263;-81
2021/12/14 13:46:16;;;;;;;19.13;15.53;;;;;;;8.76;77.68;100354.84;5019927;23;20254;-81
2021/12/14 13:49:41;;;;;;;16.17;14.47;;;;;;;8.73;78.35;100360.56;5009109;23;20223;-81
2021/12/14 13:52:27;;;;;;;17.47;14.63;;;;;;;8.72;76.26;100348.25;5041761;23;20258;-80
2021/12/14 13:55:33;;;;;;;16.47;14.77;;;;;;;8.47;78.22;100346.94;5038656;23;20179;-79
2021/12/14 13:58:40;;;;;;;19.23;15.60;;;;;;;8.40;78.79;100352.19;4973387;23;20273;-80
2021/12/14 14:02:05;;;;;;;18.30;15.30;;;;;;;8.37;79.06;100348.06;5038869;28;20222;-81
2021/12/14 14:04:48;;;;;;;17.50;14.93;;;;;;;8.32;79.22;100345.13;5046434;23;20226;-80
2021/12/14 14:08:26;;;;;;;17.73;15.17;;;;;;;8.20;79.88;100343.94;5141465;23;20312;-80
2021/12/14 14:11:28;;;;;;;17.20;15.40;;;;;;;8.24;80.73;100333.69;5072752;23;20228;-80
2021/12/14 14:14:24;;;;;;;16.97;15.00;;;;;;;8.15;80.50;100332.16;5210489;23;20233;-81
2021/12/14 14:17:18;;;;;;;17.33;15.13;;;;;;;8.17;80.52;100330.94;5043240;28;20216;-80
2021/12/14 14:20:01;;;;;;;17.63;15.10;;;;;;;8.12;80.08;100343.22;5064427;23;20234;-80
2021/12/14 14:23:31;;;;;;;16.43;14.30;;;;;;;8.08;80.56;100355.25;5034054;23;20213;-80
2021/12/14 14:26:41;;;;;;;16.57;14.43;;;;;;;8.09;80.41;100346.25;5056543;28;20230;-81
2021/12/14 14:30:05;;;;;;;19.25;16.15;;;;;;;7.88;80.23;100341.66;5092978;23;20188;31
2021/12/14 14:33:54;;;;;;;17.47;14.83;;;;;;;7.80;81.45;100339.06;4938855;29;20443;-80
2021/12/14 14:36:48;;;;;;;18.47;15.93;;;;;;;7.80;81.95;100342.56;4937516;29;20298;-80
2021/12/14 14:42:53;;;;;;;17.70;15.67;;;;;;;7.61;82.85;100339.63;5042715;23;20237;-81
2021/12/14 14:45:46;;;;;;;17.03;15.23;;;;;;;7.68;83.29;100345.91;5030458;23;20234;-80
2021/12/14 14:48:46;;;;;;;17.67;14.80;;;;;;;7.51;83.00;100332.72;5046288;23;20213;-80
2021/12/14 14:52:03;;;;;;;20.37;16.60;;;;;;;7.61;83.01;100351.13;5011297;23;20215;-80
2021/12/14 14:55:20;;;;;;;19.90;16.40;;;;;;;7.53;83.91;100360.03;5142293;23;20209;-80
2021/12/14 14:58:05;;;;;;;18.93;16.33;;;;;;;7.50;83.78;100352.41;5038362;28;20240;-80
2021/12/14 15:00:55;;;;;;;17.93;15.73;;;;;;;7.47;84.32;100358.09;5064484;23;20238;-80
2021/12/14 15:04:01;;;;;;;18.70;16.23;;;;;;;7.44;83.75;100358.47;5016393;28;20241;-80
2021/12/14 15:07:07;;;;;;;19.53;16.40;;;;;;;7.39;84.80;100360.00;5053027;23;20229;-80
2021/12/14 15:09:35;;;;;;;18.57;16.40;;;;;;;7.34;84.16;100349.91;5057326;28;20222;-80
2021/12/14 15:12:20;;;;;;;18.17;16.10;;;;;;;7.27;84.11;100359.63;5059999;23;20326;-81
2021/12/14 15:15:19;;;;;;;17.90;15.93;;;;;;;7.09;84.33;100343.94;5014724;23;20408;-80
2021/12/14 15:18:07;;;;;;;18.77;16.23;;;;;;;7.21;83.74;100367.50;5025891;28;20226;-80
2021/12/14 15:20:47;;;;;;;19.43;16.03;;;;;;;7.15;84.83;100370.88;5035727;23;20220;-81
2021/12/14 15:24:20;;;;;;;19.57;16.13;;;;;;;7.18;84.56;100378.53;5051841;23;20237;-80
2021/12/14 15:27:34;;;;;;;18.20;16.27;;;;;;;7.05;84.92;100369.31;5015810;23;20207;-80
2021/12/14 15:30:36;;;;;;;19.50;16.23;;;;;;;7.14;84.84;100377.25;4987513;23;20226;-80
2021/12/14 15:33:38;;;;;;;18.87;16.10;;;;;;;7.12;85.30;100381.91;5012415;23;20211;-80
2021/12/14 15:36:51;;;;;;;20.50;16.83;;;;;;;7.08;85.22;100386.78;5018754;23;20207;31
2021/12/14 15:39:51;;;;;;;18.73;15.90;;;;;;;6.89;85.90;100365.94;5019361;23;20254;-79